sensor_id;sensor_type;location;lat;lon;timestamp;pressure;altitude;pressure_sealevel;temperature;humidity
17505;BME280;8870;50.950;11.762;2022-12-18T00:03:52;99748.50;;;-8.28;100.00
17505;BME280;8870;50.950;11.762;2022-12-18T00:09:24;99760.75;;;-8.30;100.00
17505;BME280;8870;50.950;11.762;2022-12-18T00:14:49;99757.25;;;-8.34;100.00
17505;BME280;8870;50.950;11.762;2022-12-18T00:20:21;99753.81;;;-8.38;100.00
17505;BME280;8870;50.950;11.762;2022-12-18T00:25:41;99760.81;;;-8.41;100.00
17505;BME280;8870;50.950;11.762;2022-12-18T00:31:16;99757.31;;;-8.43;100.00
17505;BME280;8870;50.950;11.762;2022-12-18T00:36:35;99761.69;;;-8.45;100.00
17505;BME280;8870;50.950;11.762;2022-12-18T00:42:08;99768.72;;;-8.49;100.00
17505;BME280;8870;50.950;11.762;2022-12-18T00:47:42;99768.78;;;-8.55;100.00
17505;BME280;8870;50.950;11.762;2022-12-18T00:53:14;99761.81;;;-8.59;100.00
17505;BME280;8870;50.950;11.762;2022-12-18T00:58:33;99769.66;;;-8.62;100.00
17505;BME280;8870;50.950;11.762;2022-12-18T01:04:06;99767.09;;;-8.69;100.00
17505;BME280;8870;50.950;11.762;2022-12-18T01:09:25;99767.09;;;-8.72;100.00
17505;BME280;8870;50.950;11.762;2022-12-18T01:14:57;99768.88;;;-8.75;100.00
17505;BME280;8870;50.950;11.762;2022-12-18T01:20:17;99780.19;;;-8.78;100.00
17505;BME280;8870;50.950;11.762;2022-12-18T01:25:48;99792.41;;;-8.80;100.00
17505;BME280;8870;50.950;11.762;2022-12-18T01:31:20;99809.78;;;-8.80;100.00
17505;BME280;8870;50.950;11.762;2022-12-18T01:36:41;99815.91;;;-8.83;100.00
17505;BME280;8870;50.950;11.762;2022-12-18T01:42:15;99819.38;;;-8.87;100.00
17505;BME280;8870;50.950;11.762;2022-12-18T01:47:37;99814.19;;;-8.90;100.00
17505;BME280;8870;50.950;11.762;2022-12-18T01:53:14;99810.75;;;-8.94;100.00
17505;BME280;8870;50.950;11.762;2022-12-18T01:58:39;99811.59;;;-8.96;100.00
17505;BME280;8870;50.950;11.762;2022-12-18T02:04:20;99797.69;;;-9.02;100.00
17505;BME280;8870;50.950;11.762;2022-12-18T02:09:46;99800.31;;;-9.05;100.00
17505;BME280;8870;50.950;11.762;2022-12-18T02:15:22;99802.06;;;-9.07;100.00
17505;BME280;8870;50.950;11.762;2022-12-18T02:20:47;99807.28;;;-9.08;100.00
17505;BME280;8870;50.950;11.762;2022-12-18T02:26:26;99813.38;;;-9.11;100.00
17505;BME280;8870;50.950;11.762;2022-12-18T02:31:50;99804.69;;;-9.13;100.00
17505;BME280;8870;50.950;11.762;2022-12-18T02:37:23;99807.31;;;-9.16;100.00
17505;BME280;8870;50.950;11.762;2022-12-18T02:42:47;99809.03;;;-9.18;100.00
17505;BME280;8870;50.950;11.762;2022-12-18T02:48:19;99805.56;;;-9.20;100.00
17505;BME280;8870;50.950;11.762;2022-12-18T02:53:43;99801.22;;;-9.26;100.00
17505;BME280;8870;50.950;11.762;2022-12-18T02:59:22;99802.97;;;-9.30;100.00
17505;BME280;8870;50.950;11.762;2022-12-18T03:04:48;99811.66;;;-9.34;100.00
17505;BME280;8870;50.950;11.762;2022-12-18T03:10:25;99802.13;;;-9.41;100.00
17505;BME280;8870;50.950;11.762;2022-12-18T03:15:49;99796.03;;;-9.45;100.00
17505;BME280;8870;50.950;11.762;2022-12-18T03:21:27;99792.56;;;-9.51;100.00
17505;BME280;8870;50.950;11.762;2022-12-18T03:26:53;99803.03;;;-9.53;100.00
17505;BME280;8870;50.950;11.762;2022-12-18T03:32:30;99807.34;;;-9.53;100.00
17505;BME280;8870;50.950;11.762;2022-12-18T03:37:51;99813.44;;;-9.54;100.00
17505;BME280;8870;50.950;11.762;2022-12-18T03:43:34;99811.72;;;-9.57;100.00
17505;BME280;8870;50.950;11.762;2022-12-18T03:49:02;99818.66;;;-9.59;100.00
17505;BME280;8870;50.950;11.762;2022-12-18T03:54:40;99826.50;;;-9.64;100.00
17505;BME280;8870;50.950;11.762;2022-12-18T04:00:03;99827.34;;;-9.63;100.00
17505;BME280;8870;50.950;11.762;2022-12-18T04:05:48;99830.84;;;-9.66;100.00
17505;BME280;8870;50.950;11.762;2022-12-18T04:11:08;99822.16;;;-9.69;100.00
17505;BME280;8870;50.950;11.762;2022-12-18T04:16:41;99817.81;;;-9.75;100.00
17505;BME280;8870;50.950;11.762;2022-12-18T04:22:09;99818.66;;;-9.76;100.00
17505;BME280;8870;50.950;11.762;2022-12-18T04:27:40;99812.56;;;-9.78;100.00
17505;BME280;8870;50.950;11.762;2022-12-18T04:32:59;99812.56;;;-9.83;100.00
17505;BME280;8870;50.950;11.762;2022-12-18T04:38:33;99808.22;;;-9.84;100.00
17505;BME280;8870;50.950;11.762;2022-12-18T04:43:52;99806.50;;;-9.86;100.00
17505;BME280;8870;50.950;11.762;2022-12-18T04:49:24;99805.63;;;-9.88;100.00
17505;BME280;8870;50.950;11.762;2022-12-18T04:54:44;99815.19;;;-9.89;100.00
17505;BME280;8870;50.950;11.762;2022-12-18T05:00:16;99810.84;;;-9.88;100.00
17505;BME280;8870;50.950;11.762;2022-12-18T05:05:35;99815.19;;;-9.91;100.00
17505;BME280;8870;50.950;11.762;2022-12-18T05:11:11;99822.13;;;-9.93;100.00
17505;BME280;8870;50.950;11.762;2022-12-18T05:16:31;99825.63;;;-9.97;100.00
17505;BME280;8870;50.950;11.762;2022-12-18T05:22:02;99831.66;;;-9.99;100.00
17505;BME280;8870;50.950;11.762;2022-12-18T05:27:22;99837.78;;;-10.03;100.00
17505;BME280;8870;50.950;11.762;2022-12-18T05:32:54;99846.44;;;-10.08;100.00
17505;BME280;8870;50.950;11.762;2022-12-18T05:38:12;99853.41;;;-10.13;100.00
17505;BME280;8870;50.950;11.762;2022-12-18T05:43:45;99841.22;;;-10.18;100.00
17505;BME280;8870;50.950;11.762;2022-12-18T05:49:04;99831.63;;;-10.26;100.00
17505;BME280;8870;50.950;11.762;2022-12-18T05:54:35;99838.56;;;-10.34;100.00
17505;BME280;8870;50.950;11.762;2022-12-18T05:59:57;99842.03;;;-10.37;100.00
17505;BME280;8870;50.950;11.762;2022-12-18T06:05:29;99850.75;;;-10.42;100.00
17505;BME280;8870;50.950;11.762;2022-12-18T06:10:50;99857.69;;;-10.44;100.00
17505;BME280;8870;50.950;11.762;2022-12-18T06:16:25;99858.56;;;-10.47;100.00
17505;BME280;8870;50.950;11.762;2022-12-18T06:21:44;99853.31;;;-10.50;100.00
17505;BME280;8870;50.950;11.762;2022-12-18T06:27:15;99862.88;;;-10.54;100.00
17505;BME280;8870;50.950;11.762;2022-12-18T06:32:35;99867.19;;;-10.54;100.00
17505;BME280;8870;50.950;11.762;2022-12-18T06:38:11;99866.34;;;-10.55;100.00
17505;BME280;8870;50.950;11.762;2022-12-18T06:43:29;99877.63;;;-10.52;100.00
17505;BME280;8870;50.950;11.762;2022-12-18T06:49:03;99875.00;;;-10.56;100.00
17505;BME280;8870;50.950;11.762;2022-12-18T06:54:22;99872.38;;;-10.60;100.00
17505;BME280;8870;50.950;11.762;2022-12-18T06:59:53;99859.34;;;-10.65;100.00
17505;BME280;8870;50.950;11.762;2022-12-18T07:05:13;99858.44;;;-10.69;100.00
17505;BME280;8870;50.950;11.762;2022-12-18T07:10:45;99869.72;;;-10.71;100.00
17505;BME280;8870;50.950;11.762;2022-12-18T07:16:06;99869.69;;;-10.74;100.00
17505;BME280;8870;50.950;11.762;2022-12-18T07:21:42;99870.56;;;-10.75;100.00
17505;BME280;8870;50.950;11.762;2022-12-18T07:27:01;99880.13;;;-10.77;100.00
17505;BME280;8870;50.950;11.762;2022-12-18T07:32:32;99867.97;;;-10.78;100.00
17505;BME280;8870;50.950;11.762;2022-12-18T07:37:52;99864.50;;;-10.77;100.00
17505;BME280;8870;50.950;11.762;2022-12-18T07:43:24;99867.94;;;-10.75;100.00
17505;BME280;8870;50.950;11.762;2022-12-18T07:48:42;99883.63;;;-10.69;100.00
17505;BME280;8870;50.950;11.762;2022-12-18T07:54:16;99901.88;;;-10.60;100.00
17505;BME280;8870;50.950;11.762;2022-12-18T07:59:35;99909.75;;;-10.54;100.00
17505;BME280;8870;50.950;11.762;2022-12-18T08:05:07;99906.28;;;-10.49;100.00
17505;BME280;8870;50.950;11.762;2022-12-18T08:10:28;99916.72;;;-10.46;100.00
17505;BME280;8870;50.950;11.762;2022-12-18T08:16:02;99928.94;;;-10.38;100.00
17505;BME280;8870;50.950;11.762;2022-12-18T08:21:23;99928.03;;;-10.32;100.00
17505;BME280;8870;50.950;11.762;2022-12-18T08:26:57;99932.41;;;-10.25;100.00
17505;BME280;8870;50.950;11.762;2022-12-18T08:32:36;99928.97;;;-10.17;100.00
17505;BME280;8870;50.950;11.762;2022-12-18T08:38:08;99924.69;;;-10.06;100.00
17505;BME280;8870;50.950;11.762;2022-12-18T08:43:29;99929.94;;;-9.94;100.00
17505;BME280;8870;50.950;11.762;2022-12-18T08:49:16;99932.56;;;-9.84;100.00
17505;BME280;8870;50.950;11.762;2022-12-18T08:54:49;99920.41;;;-9.71;100.00
17505;BME280;8870;50.950;11.762;2022-12-18T09:00:12;99927.38;;;-9.60;100.00
17505;BME280;8870;50.950;11.762;2022-12-18T09:05:45;99916.97;;;-9.47;100.00
17505;BME280;8870;50.950;11.762;2022-12-18T09:11:04;99904.78;;;-9.36;100.00
17505;BME280;8870;50.950;11.762;2022-12-18T09:16:44;99910.84;;;-9.21;100.00
17505;BME280;8870;50.950;11.762;2022-12-18T09:22:03;99903.00;;;-9.09;100.00
17505;BME280;8870;50.950;11.762;2022-12-18T09:27:34;99914.31;;;-8.90;100.00
17505;BME280;8870;50.950;11.762;2022-12-18T09:32:54;99908.16;;;-8.75;100.00
17505;BME280;8870;50.950;11.762;2022-12-18T09:38:26;99913.38;;;-8.56;100.00
17505;BME280;8870;50.950;11.762;2022-12-18T09:43:47;99893.22;;;-8.36;100.00
17505;BME280;8870;50.950;11.762;2022-12-18T09:49:25;99877.44;;;-8.15;100.00
17505;BME280;8870;50.950;11.762;2022-12-18T09:54:47;99858.16;;;-7.94;100.00
17505;BME280;8870;50.950;11.762;2022-12-18T10:00:21;99865.00;;;-7.76;100.00
17505;BME280;8870;50.950;11.762;2022-12-18T10:05:49;99856.97;;;-7.53;100.00
17505;BME280;8870;50.950;11.762;2022-12-18T10:11:40;99860.28;;;-7.32;100.00
17505;BME280;8870;50.950;11.762;2022-12-18T10:17:07;99870.63;;;-7.14;100.00
17505;BME280;8870;50.950;11.762;2022-12-18T10:22:51;99854.72;;;-6.98;100.00
17505;BME280;8870;50.950;11.762;2022-12-18T10:28:16;99850.19;;;-6.81;100.00
17505;BME280;8870;50.950;11.762;2022-12-18T10:33:49;99836.00;;;-6.62;100.00
17505;BME280;8870;50.950;11.762;2022-12-18T10:39:20;99820.94;;;-6.46;100.00
17505;BME280;8870;50.950;11.762;2022-12-18T10:45:00;99816.34;;;-6.29;100.00
17505;BME280;8870;50.950;11.762;2022-12-18T10:50:29;99822.25;;;-6.14;100.00
17505;BME280;8870;50.950;11.762;2022-12-18T10:56:26;99819.34;;;-5.97;100.00
17505;BME280;8870;50.950;11.762;2022-12-18T11:01:47;99817.38;;;-5.80;100.00
17505;BME280;8870;50.950;11.762;2022-12-18T11:07:19;99830.19;;;-5.60;100.00
17505;BME280;8870;50.950;11.762;2022-12-18T11:12:40;99833.41;;;-5.44;100.00
17505;BME280;8870;50.950;11.762;2022-12-18T11:18:17;99841.91;;;-5.28;100.00
17505;BME280;8870;50.950;11.762;2022-12-18T11:23:46;99837.28;;;-5.13;100.00
17505;BME280;8870;50.950;11.762;2022-12-18T11:29:24;99820.31;;;-4.97;100.00
17505;BME280;8870;50.950;11.762;2022-12-18T11:34:57;99826.13;;;-4.79;100.00
17505;BME280;8870;50.950;11.762;2022-12-18T11:40:35;99816.16;;;-4.63;100.00
17505;BME280;8870;50.950;11.762;2022-12-18T11:46:00;99822.88;;;-4.48;100.00
17505;BME280;8870;50.950;11.762;2022-12-18T11:51:43;99817.31;;;-4.32;100.00
17505;BME280;8870;50.950;11.762;2022-12-18T11:57:24;99803.88;;;-4.22;100.00
17505;BME280;8870;50.950;11.762;2022-12-18T12:03:15;99790.50;;;-4.11;100.00
17505;BME280;8870;50.950;11.762;2022-12-18T12:09:00;99765.69;;;-4.00;100.00
17505;BME280;8870;50.950;11.762;2022-12-18T12:14:33;99754.94;;;-3.91;100.00
17505;BME280;8870;50.950;11.762;2022-12-18T12:20:19;99752.91;;;-3.80;100.00
17505;BME280;8870;50.950;11.762;2022-12-18T12:25:47;99748.16;;;-3.65;100.00
17505;BME280;8870;50.950;11.762;2022-12-18T12:31:32;99747.78;;;-3.50;100.00
17505;BME280;8870;50.950;11.762;2022-12-18T12:37:19;99741.28;;;-3.36;100.00
17505;BME280;8870;50.950;11.762;2022-12-18T12:42:44;99752.31;;;-3.22;100.00
17505;BME280;8870;50.950;11.762;2022-12-18T12:48:41;99746.13;;;-3.21;100.00
17505;BME280;8870;50.950;11.762;2022-12-18T12:54:11;99746.06;;;-3.18;100.00
17505;BME280;8870;50.950;11.762;2022-12-18T12:59:51;99732.63;;;-3.08;100.00
17505;BME280;8870;50.950;11.762;2022-12-18T13:05:19;99734.00;;;-2.95;100.00
17505;BME280;8870;50.950;11.762;2022-12-18T13:10:57;99735.16;;;-2.74;100.00
17505;BME280;8870;50.950;11.762;2022-12-18T13:16:29;99732.13;;;-2.60;100.00
17505;BME280;8870;50.950;11.762;2022-12-18T13:22:00;99721.56;;;-2.60;100.00
17505;BME280;8870;50.950;11.762;2022-12-18T13:27:51;99726.91;;;-2.61;100.00
17505;BME280;8870;50.950;11.762;2022-12-18T13:33:47;99718.09;;;-2.62;100.00
17505;BME280;8870;50.950;11.762;2022-12-18T13:39:33;99694.31;;;-2.60;100.00
17505;BME280;8870;50.950;11.762;2022-12-18T13:45:35;99714.41;;;-2.56;100.00
17505;BME280;8870;50.950;11.762;2022-12-18T13:50:59;99690.50;;;-2.50;100.00
17505;BME280;8870;50.950;11.762;2022-12-18T13:56:31;99675.59;;;-2.53;100.00
17505;BME280;8870;50.950;11.762;2022-12-18T14:01:56;99678.34;;;-2.56;100.00
17505;BME280;8870;50.950;11.762;2022-12-18T14:07:29;99684.63;;;-2.60;100.00
17505;BME280;8870;50.950;11.762;2022-12-18T14:13:01;99683.84;;;-2.64;100.00
17505;BME280;8870;50.950;11.762;2022-12-18T14:18:44;99698.16;;;-2.71;100.00
17505;BME280;8870;50.950;11.762;2022-12-18T14:24:19;99711.44;;;-2.75;100.00
17505;BME280;8870;50.950;11.762;2022-12-18T14:29:52;99699.38;;;-2.83;100.00
17505;BME280;8870;50.950;11.762;2022-12-18T14:35:15;99694.28;;;-2.89;100.00
17505;BME280;8870;50.950;11.762;2022-12-18T14:40:46;99698.00;;;-2.96;100.00
17505;BME280;8870;50.950;11.762;2022-12-18T14:46:05;99698.22;;;-3.04;100.00
17505;BME280;8870;50.950;11.762;2022-12-18T14:51:47;99697.56;;;-3.12;100.00
17505;BME280;8870;50.950;11.762;2022-12-18T14:57:22;99698.66;;;-3.19;100.00
17505;BME280;8870;50.950;11.762;2022-12-18T15:02:42;99693.53;;;-3.24;100.00
17505;BME280;8870;50.950;11.762;2022-12-18T15:08:29;99696.31;;;-3.30;100.00
17505;BME280;8870;50.950;11.762;2022-12-18T15:13:48;99697.41;;;-3.37;100.00
17505;BME280;8870;50.950;11.762;2022-12-18T15:19:20;99701.97;;;-3.44;100.00
17505;BME280;8870;50.950;11.762;2022-12-18T15:24:42;99690.72;;;-3.51;100.00
17505;BME280;8870;50.950;11.762;2022-12-18T15:30:18;99697.97;;;-3.59;100.00
17505;BME280;8870;50.950;11.762;2022-12-18T15:35:37;99698.13;;;-3.65;100.00
17505;BME280;8870;50.950;11.762;2022-12-18T15:41:14;99701.72;;;-3.69;100.00
17505;BME280;8870;50.950;11.762;2022-12-18T15:46:33;99704.47;;;-3.73;100.00
17505;BME280;8870;50.950;11.762;2022-12-18T15:52:04;99705.38;;;-3.74;100.00
17505;BME280;8870;50.950;11.762;2022-12-18T15:57:25;99691.41;;;-3.77;100.00
17505;BME280;8870;50.950;11.762;2022-12-18T16:02:57;99691.44;;;-3.79;100.00
17505;BME280;8870;50.950;11.762;2022-12-18T16:08:15;99672.22;;;-3.82;100.00
17505;BME280;8870;50.950;11.762;2022-12-18T16:13:48;99668.75;;;-3.84;100.00
17505;BME280;8870;50.950;11.762;2022-12-18T16:19:07;99671.47;;;-3.88;100.00
17505;BME280;8870;50.950;11.762;2022-12-18T16:24:38;99656.63;;;-3.90;100.00
17505;BME280;8870;50.950;11.762;2022-12-18T16:30:01;99661.94;;;-3.92;100.00
17505;BME280;8870;50.950;11.762;2022-12-18T16:35:32;99657.63;;;-3.94;100.00
17505;BME280;8870;50.950;11.762;2022-12-18T16:40:52;99647.09;;;-3.96;100.00
17505;BME280;8870;50.950;11.762;2022-12-18T16:46:38;99633.94;;;-3.96;100.00
17505;BME280;8870;50.950;11.762;2022-12-18T16:52:01;99639.19;;;-3.94;100.00
17505;BME280;8870;50.950;11.762;2022-12-18T16:57:33;99633.00;;;-3.93;100.00
17505;BME280;8870;50.950;11.762;2022-12-18T17:02:53;99637.34;;;-3.92;100.00
17505;BME280;8870;50.950;11.762;2022-12-18T17:08:26;99639.88;;;-3.88;100.00
17505;BME280;8870;50.950;11.762;2022-12-18T17:13:44;99637.13;;;-3.83;100.00
17505;BME280;8870;50.950;11.762;2022-12-18T17:19:19;99624.78;;;-3.81;100.00
17505;BME280;8870;50.950;11.762;2022-12-18T17:24:37;99612.44;;;-3.79;100.00
17505;BME280;8870;50.950;11.762;2022-12-18T17:30:10;99611.59;;;-3.79;100.00
17505;BME280;8870;50.950;11.762;2022-12-18T17:35:31;99594.91;;;-3.80;100.00
17505;BME280;8870;50.950;11.762;2022-12-18T17:41:03;99607.22;;;-3.80;100.00
17505;BME280;8870;50.950;11.762;2022-12-18T17:46:22;99598.44;;;-3.81;100.00
17505;BME280;8870;50.950;11.762;2022-12-18T17:51:56;99591.44;;;-3.82;100.00
17505;BME280;8870;50.950;11.762;2022-12-18T17:57:15;99582.63;;;-3.79;100.00
17505;BME280;8870;50.950;11.762;2022-12-18T18:02:46;99592.19;;;-3.77;100.00
17505;BME280;8870;50.950;11.762;2022-12-18T18:08:07;99598.28;;;-3.75;100.00
17505;BME280;8870;50.950;11.762;2022-12-18T18:13:38;99585.16;;;-3.76;100.00
17505;BME280;8870;50.950;11.762;2022-12-18T18:19:09;99581.59;;;-3.74;100.00
17505;BME280;8870;50.950;11.762;2022-12-18T18:24:43;99585.94;;;-3.73;100.00
17505;BME280;8870;50.950;11.762;2022-12-18T18:30:03;99575.41;;;-3.73;100.00
17505;BME280;8870;50.950;11.762;2022-12-18T18:35:34;99568.38;;;-3.72;100.00
17505;BME280;8870;50.950;11.762;2022-12-18T18:41:05;99570.16;;;-3.73;100.00
17505;BME280;8870;50.950;11.762;2022-12-18T18:46:36;99568.38;;;-3.72;100.00
17505;BME280;8870;50.950;11.762;2022-12-18T18:52:02;99560.50;;;-3.74;100.00
17505;BME280;8870;50.950;11.762;2022-12-18T18:57:35;99549.09;;;-3.74;100.00
17505;BME280;8870;50.950;11.762;2022-12-18T19:02:54;99537.72;;;-3.75;100.00
17505;BME280;8870;50.950;11.762;2022-12-18T19:08:26;99534.19;;;-3.74;100.00
17505;BME280;8870;50.950;11.762;2022-12-18T19:13:48;99527.13;;;-3.73;100.00
17505;BME280;8870;50.950;11.762;2022-12-18T19:19:23;99510.41;;;-3.70;100.00
17505;BME280;8870;50.950;11.762;2022-12-18T19:24:41;99495.44;;;-3.70;100.00
17505;BME280;8870;50.950;11.762;2022-12-18T19:30:15;99490.81;;;-3.62;100.00
17505;BME280;8870;50.950;11.762;2022-12-18T19:35:33;99492.31;;;-3.53;100.00
17505;BME280;8870;50.950;11.762;2022-12-18T19:41:04;99490.44;;;-3.49;100.00
17505;BME280;8870;50.950;11.762;2022-12-18T19:46:26;99484.19;;;-3.47;100.00
17505;BME280;8870;50.950;11.762;2022-12-18T19:51:58;99479.66;;;-3.42;100.00
17505;BME280;8870;50.950;11.762;2022-12-18T19:57:16;99476.03;;;-3.37;100.00
17505;BME280;8870;50.950;11.762;2022-12-18T20:02:49;99470.72;;;-3.36;100.00
17505;BME280;8870;50.950;11.762;2022-12-18T20:08:23;99475.84;;;-3.31;100.00
17505;BME280;8870;50.950;11.762;2022-12-18T20:13:54;99487.81;;;-3.21;100.00
17505;BME280;8870;50.950;11.762;2022-12-18T20:19:23;99479.75;;;-3.16;100.00
17505;BME280;8870;50.950;11.762;2022-12-18T20:24:54;99481.41;;;-3.12;100.00
17505;BME280;8870;50.950;11.762;2022-12-18T20:30:12;99481.16;;;-3.04;100.00
17505;BME280;8870;50.950;11.762;2022-12-18T20:35:46;99470.47;;;-3.00;100.00
17505;BME280;8870;50.950;11.762;2022-12-18T20:41:07;99471.31;;;-2.99;100.00
17505;BME280;8870;50.950;11.762;2022-12-18T20:46:39;99470.38;;;-2.97;100.00
17505;BME280;8870;50.950;11.762;2022-12-18T20:52:00;99469.50;;;-2.97;100.00
17505;BME280;8870;50.950;11.762;2022-12-18T20:57:32;99482.69;;;-2.97;100.00
17505;BME280;8870;50.950;11.762;2022-12-18T21:02:50;99482.59;;;-2.94;100.00
17505;BME280;8870;50.950;11.762;2022-12-18T21:08:23;99473.81;;;-2.95;100.00
17505;BME280;8870;50.950;11.762;2022-12-18T21:13:42;99483.50;;;-2.95;100.00
17505;BME280;8870;50.950;11.762;2022-12-18T21:19:15;99477.38;;;-2.96;100.00
17505;BME280;8870;50.950;11.762;2022-12-18T21:24:36;99461.56;;;-2.96;100.00
17505;BME280;8870;50.950;11.762;2022-12-18T21:30:08;99442.28;;;-2.98;100.00
17505;BME280;8870;50.950;11.762;2022-12-18T21:35:26;99437.97;;;-3.00;100.00
17505;BME280;8870;50.950;11.762;2022-12-18T21:40:59;99443.28;;;-3.02;100.00
17505;BME280;8870;50.950;11.762;2022-12-18T21:46:22;99445.88;;;-3.00;100.00
17505;BME280;8870;50.950;11.762;2022-12-18T21:51:55;99435.28;;;-2.99;100.00
17505;BME280;8870;50.950;11.762;2022-12-18T21:57:17;99437.09;;;-3.01;100.00
17505;BME280;8870;50.950;11.762;2022-12-18T22:02:48;99454.72;;;-3.03;100.00
17505;BME280;8870;50.950;11.762;2022-12-18T22:08:26;99424.97;;;-3.06;100.00
17505;BME280;8870;50.950;11.762;2022-12-18T22:14:00;99411.78;;;-3.06;100.00
17505;BME280;8870;50.950;11.762;2022-12-18T22:19:19;99420.63;;;-3.07;100.00
17505;BME280;8870;50.950;11.762;2022-12-18T22:24:57;99431.22;;;-3.09;100.00
17505;BME280;8870;50.950;11.762;2022-12-18T22:30:18;99410.06;;;-3.07;100.00
17505;BME280;8870;50.950;11.762;2022-12-18T22:35:49;99418.84;;;-3.07;100.00
17505;BME280;8870;50.950;11.762;2022-12-18T22:41:07;99413.38;;;-3.01;100.00
17505;BME280;8870;50.950;11.762;2022-12-18T22:46:43;99417.88;;;-3.04;100.00
17505;BME280;8870;50.950;11.762;2022-12-18T22:52:21;99414.38;;;-3.05;100.00
17505;BME280;8870;50.950;11.762;2022-12-18T22:57:52;99418.69;;;-3.02;100.00
17505;BME280;8870;50.950;11.762;2022-12-18T23:03:13;99396.56;;;-2.98;100.00
17505;BME280;8870;50.950;11.762;2022-12-18T23:08:44;99392.03;;;-2.93;100.00
17505;BME280;8870;50.950;11.762;2022-12-18T23:14:03;99379.75;;;-2.94;100.00
17505;BME280;8870;50.950;11.762;2022-12-18T23:19:40;99363.09;;;-2.96;100.00
17505;BME280;8870;50.950;11.762;2022-12-18T23:24:58;99362.19;;;-2.95;100.00
17505;BME280;8870;50.950;11.762;2022-12-18T23:30:29;99358.88;;;-3.00;100.00
17505;BME280;8870;50.950;11.762;2022-12-18T23:35:51;99358.09;;;-3.04;100.00
17505;BME280;8870;50.950;11.762;2022-12-18T23:41:25;99347.56;;;-3.04;100.00
17505;BME280;8870;50.950;11.762;2022-12-18T23:46:44;99334.50;;;-3.07;100.00
17505;BME280;8870;50.950;11.762;2022-12-18T23:52:17;99310.81;;;-3.08;100.00
17505;BME280;8870;50.950;11.762;2022-12-18T23:57:52;99315.25;;;-3.11;100.00
